Relevés horaires Beauvechain (Belgique)


Relevés horaires à Beauvechain - Dimanche 21 Juin 2020
Heure UTC1 Température [°C] Vent [km/h] Hum. [%] Pres.4 [hPa] Visi. [Km] Nébu. [octa] Préc.5 [mm] Cond.
2m. Res. Ros. Dir.2 Vit. Moy. Raf.3
23:00 12.1 12 11.1 SO 5.6 -- 7.4 94 1022.8(2.2/3h) 20 -- -- NA
22:00 12.2 12.2 11.6 O 3.7 -- 20.4 96 1022.6(2.4/3h) 20 -- -- Il y a une bruine modérée et intermittente à la station au moment de l'observation
21:00 13.6 12.6 12.9 O 13.0 -- 20.4 96 1021.7(1.8/3h) 3.1 -- -- Il y a de la pluie faible et continue à la station au moment de l'observation
20:00 17.3 17.3 16.0 O 5.6 -- 9.3 92 1020.2(0.7/3h) 20 -- -- --
19:00 19.0 19.0 14.8 O 5.6 -- 9.3 77 1019.7(0.4/3h) 20 -- -- --
18:00 20.7 20.7 13.3 SO 5.6 -- 20.4 63 1019.5(0.4/3h) 20 -- -- --
17:00 21.1 21.1 12.3 OSO 7.4 -- 13.0 57 1019.2(0.2/3h) 20 -- -- --
16:00 21.7 21.7 11.5 OSO 7.4 -- 16.7 52 1019.2(0.4/3h) 20 -- -- --
15:00 22.3 22.3 12.7 SO 11.1 -- 20.4 55 1019(0.2/3h) 20 -- -- --
14:00 22.0 22.0 11.9 OSO 9.3 -- 16.7 53 1019.1(0.1/3h) 20 -- -- --
13:00 23.1 23.1 11.3 SO 11.1 -- 20.4 47 1018.7(-0.1/3h) 20 -- -- --
12:00 22.9 22.9 11.6 SO 11.1 -- 18.5 49 1018.7(-0.4/3h) 20 -- -- --
11:00 23.1 23.1 12.3 SO 11.1 -- 18.5 51 1018.8(-0.4/3h) 20 -- -- --
10:00 22.8 22.8 13.4 SO 11.1 -- 18.5 55 1019(-0.3/3h) 18 -- -- --
09:00 20.1 20.1 12.9 SSO 9.3 -- 13.0 63 1019.2(0.1/3h) 20 -- -- --
08:00 19.2 19.2 13.1 SSO 7.4 -- 11.1 68 1019.5(0.2/3h) 20 -- -- --
07:00 18.8 18.8 13.1 S 7.4 -- 11.1 69 1019.5(0.1/3h) 20 -- -- --
06:00 16.9 16.9 12.5 S 5.6 -- 9.3 75 1019.2(-0.2/3h) 20 -- -- --
05:00 14.6 14.6 10.6 SSE 5.6 -- 9.3 77 1019.3(-0.6/3h) 20 -- -- --
04:00 14.2 14 9.9 SSE 7.4 -- 9.3 75 1019.6(-0.8/3h) 20 -- -- --
03:00 14.6 14.6 9.9 SSE 5.6 -- 7.4 73 1019.7(-1.1/3h) 20 -- -- --
02:00 15.0 15.0 9.9 NNO 3.7 -- 7.4 72 1020(-0.8/3h) 20 -- -- --
01:00 15.8 15.8 10.2 SE 3.7 -- 5.6 69 1020.2(-0.9/3h) 20 -- -- --
00:00 16.2 16.2 10.6 SSE 3.7 -- 5.6 69 1020.7(-0.3/3h) 20 -- -- --

1 Coordinated Universal Time. Actuellement il est 12:00 locale et 10:00 UTC.

2 Le vent souffle depuis la direction indiquée vers la direction oposée.

3 Les rafales max. sont disponible 40 min après l'heure du relevé.

4 Pour les stations d'altitude (plus de 600m) le géopotentiel du niveau le plus proche de la pression obligatoire est indiqué.

5 Les stations disposant d'un diffuseur peuvent indiquer "trace". Cela signifie que des précipitations ont touchés le sol mais que la quantité est inférieure à 0.1 mm.

Récapitulatif de la journée
Température [°C] Vent [km/h] Ensoleillement4 [h] Precipitations totale5 [mm] Pression [Hpa]
Min1 Max.2 Moy.3 Max. Min Max.
14.1 24.4 0 20.4 0 h 0 min 0 1018.7 1022.8

1 Température minimale relevée entre 18:00 UTC la veille et 18:00 UTC le jour donné.

2 Température maximale relevée entre 06:00 UTC le jour donné et 06:00 UTC le lendemain.

3 Vent moyen de la journée basé sur les relevés horaires.

4 Ensoleillement en heures relevé entre 06:00 UTC la veille et 06:00 UTC le jour donné.

5 Précipitations totales tombées entre 06:00 UTC la jour donné et 06:00 UTC le lendemain.

Graphiques horaires